Latest Weather Observations for Arlington Reef

IDQ60801

Issued at 6:02 am EST Sunday 21 December 2014 (issued every 30 minutes, with the page automatically refreshed every 10 minutes)

About weather observations | Map of weather stations | Latest weather observations for QLD | Other Formats
Station Details ID: 200879 Name: ARLINGTON REEF Lat: -16.72 Lon: 146.11 Height: 0.0 m
Data from the previous 72 hours. | See also: Recent months at Arlington Reef
Date/Time
EST
Temp
°C
App
Temp
°C
Dew
Point
Rel
Hum
%
Delta-T
°C
Wind Press
QNH
hPa
Press
MSL
hPa
Rain
since 9 am
mm
Dir
 
Spd
km/h
Gust
km/h
Spd
kts
Gust
kts
21/06:00am - - - - - ESE 19 20 10 11 1010.9 1010.9 -
21/05:30am - - - - - ESE 15 19 8 10 1010.3 1010.3 -
21/05:00am - - - - - ESE 20 24 11 13 1010.1 1010.1 -
21/04:30am - - - - - ESE 19 22 10 12 1009.8 1009.8 -
21/04:00am - - - - - ESE 17 19 9 10 1009.7 1009.7 -
21/03:30am - - - - - ESE 20 22 11 12 1009.7 1009.7 -
21/03:00am - - - - - ESE 22 24 12 13 1009.6 1009.6 -
21/02:30am - - - - - ESE 22 26 12 14 1009.9 1009.9 -
21/02:00am - - - - - ESE 20 24 11 13 1010.3 1010.3 -
21/01:30am - - - - - ESE 20 24 11 13 1010.5 1010.5 -
21/01:00am - - - - - ESE 20 24 11 13 1010.6 1010.6 -
21/12:30am - - - - - ESE 19 22 10 12 1011.0 1011.0 -
21/12:00am - - - - - ESE 19 22 10 12 1011.1 1011.1 -
 
Date/Time
EST
Temp
°C
App
Temp
°C
Dew
Point
Rel
Hum
%
Delta-T
°C
Wind Press
QNH
hPa
Press
MSL
hPa
Rain
since 9 am
mm
Dir
 
Spd
km/h
Gust
km/h
Spd
kts
Gust
kts
20/11:30pm - - - - - ESE 17 20 9 11 1011.1 1011.1 -
20/11:00pm - - - - - ESE 17 20 9 11 1011.0 1011.0 -
20/10:30pm - - - - - ESE 17 20 9 11 1011.2 1011.2 -
20/10:00pm - - - - - ESE 15 17 8 9 1011.1 1011.1 -
20/09:30pm - - - - - ESE 13 17 7 9 1011.0 1011.0 -
20/09:00pm - - - - - E 13 17 7 9 1010.9 1010.9 -
20/08:30pm - - - - - E 17 20 9 11 1010.5 1010.5 -
20/08:00pm - - - - - E 17 20 9 11 1010.2 1010.2 -
20/07:30pm - - - - - E 19 22 10 12 1010.0 1010.0 -
20/07:00pm - - - - - ESE 15 19 8 10 1009.9 1009.9 -
20/06:30pm - - - - - E 15 17 8 9 1009.8 1009.8 -
20/06:00pm - - - - - ESE 15 19 8 10 1009.5 1009.5 -
20/05:30pm - - - - - ESE 17 20 9 11 1009.2 1009.2 -
20/05:00pm - - - - - ESE 19 24 10 13 1008.7 1008.7 -
20/04:30pm - - - - - ESE 19 22 10 12 1008.6 1008.6 -
20/04:00pm - - - - - SE 17 22 9 12 1008.7 1008.7 -
20/03:30pm - - - - - SE 17 20 9 11 1008.8 1008.8 -
20/03:00pm - - - - - SE 17 19 9 10 1009.0 1009.0 -
20/02:30pm - - - - - SE 15 17 8 9 1009.3 1009.3 -
20/02:00pm - - - - - SE 13 19 7 10 1009.5 1009.5 -
20/01:30pm - - - - - SE 13 15 7 8 1009.8 1009.8 -
20/01:00pm - - - - - SE 11 13 6 7 1010.5 1010.5 -
20/12:30pm - - - - - SE 11 13 6 7 1011.0 1011.0 -
20/12:00pm - - - - - ESE 7 9 4 5 1011.2 1011.2 -
20/11:30am - - - - - ESE 7 9 4 5 1011.4 1011.4 -
20/11:00am - - - - - E 9 13 5 7 1011.4 1011.4 -
20/10:30am - - - - - ENE 9 13 5 7 1011.7 1011.7 -
20/10:00am - - - - - ENE 7 9 4 5 1011.8 1011.8 -
20/09:30am - - - - - E 9 11 5 6 1011.8 1011.8 -
20/09:00am - - - - - ESE 9 13 5 7 1011.8 1011.8 -
20/08:30am - - - - - E 9 15 5 8 1011.6 1011.6 -
20/08:00am - - - - - ESE 9 13 5 7 1011.7 1011.7 -
20/07:30am - - - - - E 9 11 5 6 1011.4 1011.4 -
20/07:00am - - - - - E 9 13 5 7 1011.2 1011.2 -
20/06:30am - - - - - ESE 11 15 6 8 1010.9 1010.9 -
20/06:00am - - - - - SE 11 15 6 8 1010.7 1010.7 -
20/05:30am - - - - - ESE 13 15 7 8 1010.1 1010.1 -
20/05:00am - - - - - SE 13 15 7 8 1009.8 1009.8 -
20/04:30am - - - - - ESE 11 15 6 8 1009.7 1009.7 -
20/04:00am - - - - - ESE 9 13 5 7 1009.7 1009.7 -
20/03:30am - - - - - ESE 9 11 5 6 1009.8 1009.8 -
20/03:00am - - - - - SE 11 13 6 7 1010.1 1010.1 -
20/02:30am - - - - - SE 13 15 7 8 1010.2 1010.2 -
20/02:00am - - - - - ESE 13 17 7 9 1010.3 1010.3 -
20/01:30am - - - - - ESE 11 15 6 8 1010.5 1010.5 -
20/01:00am - - - - - E 13 17 7 9 1010.8 1010.8 -
20/12:30am - - - - - ESE 15 19 8 10 1011.0 1011.0 -
20/12:00am - - - - - ESE 19 24 10 13 1011.5 1011.5 -
 
Date/Time
EST
Temp
°C
App
Temp
°C
Dew
Point
Rel
Hum
%
Delta-T
°C
Wind Press
QNH
hPa
Press
MSL
hPa
Rain
since 9 am
mm
Dir
 
Spd
km/h
Gust
km/h
Spd
kts
Gust
kts
19/11:30pm - - - - - E 19 22 10 12 1011.7 1011.7 -
19/11:00pm - - - - - E 15 19 8 10 1011.8 1011.8 -
19/10:30pm - - - - - ESE 15 19 8 10 1011.9 1011.9 -
19/10:00pm - - - - - ESE 15 19 8 10 1011.7 1011.7 -
19/09:30pm - - - - - E 13 17 7 9 1011.5 1011.5 -
19/09:00pm - - - - - E 13 17 7 9 1011.2 1011.2 -
19/08:30pm - - - - - ENE 11 15 6 8 1010.9 1010.9 -
19/08:00pm - - - - - ENE 9 11 5 6 1010.4 1010.4 -
19/07:30pm - - - - - E 9 13 5 7 1010.1 1010.1 -
19/07:00pm - - - - - ENE 11 15 6 8 1009.7 1009.7 -
19/06:30pm - - - - - ENE 11 15 6 8 1009.4 1009.4 -
19/06:00pm - - - - - ENE 11 17 6 9 1009.2 1009.2 -
19/05:30pm - - - - - NE 13 15 7 8 1009.0 1009.0 -
19/05:00pm - - - - - NE 11 15 6 8 1008.8 1008.8 -
19/04:30pm - - - - - NE 7 11 4 6 1008.8 1008.8 -
19/04:00pm - - - - - NNE 9 11 5 6 1008.7 1008.7 -
19/03:30pm - - - - - NE 9 13 5 7 1008.9 1008.9 -
19/03:00pm - - - - - NNE 6 11 3 6 1009.2 1009.2 -
19/02:30pm - - - - - CALM 0 4 0 2 1009.5 1009.5 -
19/02:00pm - - - - - CALM 0 4 0 2 1010.0 1010.0 -
19/01:30pm - - - - - ENE 4 6 2 3 1010.3 1010.3 -
19/01:00pm - - - - - NE 2 6 1 3 1010.9 1010.9 -
19/12:30pm - - - - - NNE 2 4 1 2 1011.2 1011.2 -
19/12:00pm - - - - - CALM 0 2 0 1 1011.5 1011.5 -
19/11:30am - - - - - ENE 2 4 1 2 1011.9 1011.9 -
19/11:00am - - - - - NE 6 9 3 5 1012.1 1012.1 -
19/10:30am - - - - - E 6 7 3 4 1012.2 1012.2 -
19/10:00am - - - - - ENE 4 6 2 3 1012.5 1012.5 -
19/09:30am - - - - - ENE 6 7 3 4 1012.4 1012.4 -
19/09:00am - - - - - ENE 6 7 3 4 1012.4 1012.4 -
19/08:30am - - - - - ENE 2 4 1 2 1012.6 1012.6 -
19/08:00am - - - - - CALM 0 2 0 1 1012.4 1012.4 -
19/07:30am - - - - - NNE 2 6 1 3 1012.2 1012.2 -
19/07:00am - - - - - NNE 7 13 4 7 1011.8 1011.8 -
19/06:30am - - - - - NE 7 11 4 6 1011.5 1011.5 -
19/06:00am - - - - - NE 7 13 4 7 1011.0 1011.0 -
19/05:30am - - - - - ENE 15 19 8 10 1010.3 1010.3 -
19/05:00am - - - - - ENE 15 19 8 10 1010.1 1010.1 -
19/04:30am - - - - - E 15 20 8 11 1010.1 1010.1 -
19/04:00am - - - - - E 17 19 9 10 1010.0 1010.0 -
19/03:30am - - - - - E 20 26 11 14 1010.0 1010.0 -
19/03:00am - - - - - ESE 13 15 7 8 1010.4 1010.4 -
19/02:30am - - - - - SE 9 13 5 7 1010.8 1010.8 -
19/02:00am - - - - - SSE 7 11 4 6 1011.4 1011.4 -
19/01:30am - - - - - SE 6 7 3 4 1011.6 1011.6 -
19/01:00am - - - - - ESE 7 11 4 6 1011.4 1011.4 -
19/12:30am - - - - - ESE 6 7 3 4 1011.7 1011.7 -
19/12:00am - - - - - E 9 11 5 6 1011.7 1011.7 -
 
Date/Time
EST
Temp
°C
App
Temp
°C
Dew
Point
Rel
Hum
%
Delta-T
°C
Wind Press
QNH
hPa
Press
MSL
hPa
Rain
since 9 am
mm
Dir
 
Spd
km/h
Gust
km/h
Spd
kts
Gust
kts
18/11:30pm - - - - - ENE 7 11 4 6 1011.7 1011.7 -
18/11:00pm - - - - - ENE 6 9 3 5 1012.0 1012.0 -
18/10:30pm - - - - - E 9 13 5 7 1011.7 1011.7 -
18/10:00pm - - - - - E 7 9 4 5 1011.7 1011.7 -
18/09:30pm - - - - - E 7 11 4 6 1011.4 1011.4 -
18/09:00pm - - - - - E 7 9 4 5 1011.2 1011.2 -
18/08:30pm - - - - - E 6 9 3 5 1011.3 1011.3 -
18/08:00pm - - - - - NE 6 7 3 4 1010.9 1010.9 -
18/07:30pm - - - - - NNE 7 11 4 6 1010.5 1010.5 -
18/07:00pm - - - - - NE 6 11 3 6 1010.1 1010.1 -
18/06:30pm - - - - - NE 7 13 4 7 1009.4 1009.4 -
18/06:00pm - - - - - NNE 9 15 5 8 1009.0 1009.0 -
18/05:30pm - - - - - NE 9 13 5 7 1008.9 1008.9 -
18/05:00pm - - - - - NNE 13 17 7 9 1008.8 1008.8 -
18/04:30pm - - - - - NE 9 15 5 8 1008.6 1008.6 -
18/04:00pm - - - - - NE 15 17 8 9 1008.9 1008.9 -
18/03:30pm - - - - - NNE 9 15 5 8 1009.3 1009.3 -
18/03:00pm - - - - - NE 11 17 6 9 1009.7 1009.7 -
18/02:30pm - - - - - NE 7 13 4 7 1010.1 1010.1 -
18/02:00pm - - - - - NNE 9 13 5 7 1010.2 1010.2 -
18/01:30pm - - - - - N 6 7 3 4 1010.7 1010.7 -
18/01:00pm - - - - - NNE 6 9 3 5 1011.2 1011.2 -
18/12:30pm - - - - - NNE 6 7 3 4 1011.4 1011.4 -
18/12:00pm - - - - - NNE 6 7 3 4 1011.5 1011.5 -
18/11:30am - - - - - NNE 6 6 3 3 1011.8 1011.8 -
18/11:00am - - - - - NNE 6 9 3 5 1012.0 1012.0 -
18/10:30am - - - - - NNE 7 11 4 6 1012.1 1012.1 -
18/10:00am - - - - - NNE 6 9 3 5 1012.2 1012.2 -
18/09:30am - - - - - NNW 6 7 3 4 1012.3 1012.3 -
18/09:00am - - - - - N 7 11 4 6 1012.2 1012.2 -
18/08:30am - - - - - N 6 9 3 5 1012.3 1012.3 -
18/08:00am - - - - - N 6 9 3 5 1012.2 1012.2 -
18/07:30am - - - - - NNE 6 11 3 6 1012.1 1012.1 -
18/07:00am - - - - - N 7 11 4 6 1011.9 1011.9 -
18/06:30am - - - - - NNE 6 9 3 5 1011.5 1011.5 -

Other Formats:

Comma delimited format used in spreadsheet applications
http://www.bom.gov.au/fwo/IDQ60801/IDQ60801.94284.axf

JavaScript Object Notation format (JSON) in row-major order
http://www.bom.gov.au/fwo/IDQ60801/IDQ60801.94284.json